sensor_id;sensor_type;location;lat;lon;timestamp;temperature;humidity
13589;DHT22;6865;52.552;13.434;2023-04-29T00:00:38;12.30;99.90
13589;DHT22;6865;52.552;13.434;2023-04-29T00:03:05;12.30;99.90
13589;DHT22;6865;52.552;13.434;2023-04-29T00:05:32;12.40;99.90
13589;DHT22;6865;52.552;13.434;2023-04-29T00:07:59;12.40;99.90
13589;DHT22;6865;52.552;13.434;2023-04-29T00:10:25;12.40;99.90
13589;DHT22;6865;52.552;13.434;2023-04-29T00:12:52;12.40;99.90
13589;DHT22;6865;52.552;13.434;2023-04-29T00:15:19;12.30;99.90
13589;DHT22;6865;52.552;13.434;2023-04-29T00:17:46;12.30;99.90
13589;DHT22;6865;52.552;13.434;2023-04-29T00:20:13;12.30;99.90
13589;DHT22;6865;52.552;13.434;2023-04-29T00:22:40;12.30;99.90
13589;DHT22;6865;52.552;13.434;2023-04-29T00:25:07;12.30;99.90
13589;DHT22;6865;52.552;13.434;2023-04-29T00:27:34;12.20;99.90
13589;DHT22;6865;52.552;13.434;2023-04-29T00:30:01;11.90;99.90
13589;DHT22;6865;52.552;13.434;2023-04-29T00:32:29;12.10;99.90
13589;DHT22;6865;52.552;13.434;2023-04-29T00:34:55;12.10;99.90
13589;DHT22;6865;52.552;13.434;2023-04-29T00:37:22;12.10;99.90
13589;DHT22;6865;52.552;13.434;2023-04-29T00:39:49;12.10;99.90
13589;DHT22;6865;52.552;13.434;2023-04-29T00:42:16;12.10;99.90
13589;DHT22;6865;52.552;13.434;2023-04-29T00:44:43;12.10;99.90
13589;DHT22;6865;52.552;13.434;2023-04-29T00:47:10;12.20;99.90
13589;DHT22;6865;52.552;13.434;2023-04-29T00:49:40;12.20;99.90
13589;DHT22;6865;52.552;13.434;2023-04-29T00:52:07;12.20;99.90
13589;DHT22;6865;52.552;13.434;2023-04-29T00:54:34;12.20;99.90
13589;DHT22;6865;52.552;13.434;2023-04-29T00:57:03;12.30;99.90
13589;DHT22;6865;52.552;13.434;2023-04-29T00:59:32;12.20;99.90
13589;DHT22;6865;52.552;13.434;2023-04-29T01:02:09;12.20;99.90
13589;DHT22;6865;52.552;13.434;2023-04-29T01:04:36;12.10;99.90
13589;DHT22;6865;52.552;13.434;2023-04-29T01:07:17;10.70;99.90
13589;DHT22;6865;52.552;13.434;2023-04-29T01:10:02;11.90;99.90
13589;DHT22;6865;52.552;13.434;2023-04-29T01:12:33;11.90;99.90
13589;DHT22;6865;52.552;13.434;2023-04-29T01:15:23;12.00;99.90
13589;DHT22;6865;52.552;13.434;2023-04-29T01:18:19;12.20;99.90
13589;DHT22;6865;52.552;13.434;2023-04-29T01:20:49;12.30;99.90
13589;DHT22;6865;52.552;13.434;2023-04-29T01:23:16;12.20;99.90
13589;DHT22;6865;52.552;13.434;2023-04-29T01:25:43;12.20;99.90
13589;DHT22;6865;52.552;13.434;2023-04-29T01:30:55;11.70;99.90
13589;DHT22;6865;52.552;13.434;2023-04-29T01:36:31;11.50;99.90
13589;DHT22;6865;52.552;13.434;2023-04-29T01:39:31;11.40;99.90
13589;DHT22;6865;52.552;13.434;2023-04-29T01:42:16;11.40;99.90
13589;DHT22;6865;52.552;13.434;2023-04-29T01:44:46;11.50;99.90
13589;DHT22;6865;52.552;13.434;2023-04-29T01:47:14;11.60;99.90
13589;DHT22;6865;52.552;13.434;2023-04-29T01:49:41;11.60;99.90
13589;DHT22;6865;52.552;13.434;2023-04-29T01:52:08;11.50;99.90
13589;DHT22;6865;52.552;13.434;2023-04-29T01:54:35;11.40;99.90
13589;DHT22;6865;52.552;13.434;2023-04-29T01:57:02;11.30;99.90
13589;DHT22;6865;52.552;13.434;2023-04-29T01:59:29;11.30;99.90
13589;DHT22;6865;52.552;13.434;2023-04-29T02:01:57;11.30;99.90
13589;DHT22;6865;52.552;13.434;2023-04-29T02:04:24;11.30;99.90
13589;DHT22;6865;52.552;13.434;2023-04-29T02:06:51;11.30;99.90
13589;DHT22;6865;52.552;13.434;2023-04-29T02:09:18;11.20;99.90
13589;DHT22;6865;52.552;13.434;2023-04-29T02:11:44;11.30;99.90
13589;DHT22;6865;52.552;13.434;2023-04-29T02:14:11;11.30;99.90
13589;DHT22;6865;52.552;13.434;2023-04-29T02:16:38;11.30;99.90
13589;DHT22;6865;52.552;13.434;2023-04-29T02:19:04;11.30;99.90
13589;DHT22;6865;52.552;13.434;2023-04-29T02:21:31;11.30;99.90
13589;DHT22;6865;52.552;13.434;2023-04-29T02:23:58;11.30;99.90
13589;DHT22;6865;52.552;13.434;2023-04-29T02:26:24;11.30;99.90
13589;DHT22;6865;52.552;13.434;2023-04-29T02:28:51;11.30;99.90
13589;DHT22;6865;52.552;13.434;2023-04-29T02:31:18;11.30;99.90
13589;DHT22;6865;52.552;13.434;2023-04-29T02:33:44;11.30;99.90
13589;DHT22;6865;52.552;13.434;2023-04-29T02:36:11;11.30;99.90
13589;DHT22;6865;52.552;13.434;2023-04-29T02:38:37;11.30;99.90
13589;DHT22;6865;52.552;13.434;2023-04-29T02:41:04;11.30;99.90
13589;DHT22;6865;52.552;13.434;2023-04-29T02:43:31;11.30;99.90
13589;DHT22;6865;52.552;13.434;2023-04-29T02:45:58;12.50;99.90
13589;DHT22;6865;52.552;13.434;2023-04-29T02:48:25;11.40;99.90
13589;DHT22;6865;52.552;13.434;2023-04-29T02:50:52;11.40;99.90
13589;DHT22;6865;52.552;13.434;2023-04-29T02:53:19;11.20;99.90
13589;DHT22;6865;52.552;13.434;2023-04-29T02:55:46;11.30;99.90
13589;DHT22;6865;52.552;13.434;2023-04-29T02:58:13;11.30;99.90
13589;DHT22;6865;52.552;13.434;2023-04-29T03:00:40;11.40;99.90
13589;DHT22;6865;52.552;13.434;2023-04-29T03:03:07;11.30;99.90
13589;DHT22;6865;52.552;13.434;2023-04-29T03:05:34;11.30;99.90
13589;DHT22;6865;52.552;13.434;2023-04-29T03:08:01;11.20;99.90
13589;DHT22;6865;52.552;13.434;2023-04-29T03:10:29;11.20;99.90
13589;DHT22;6865;52.552;13.434;2023-04-29T03:12:56;11.30;99.90
13589;DHT22;6865;52.552;13.434;2023-04-29T03:15:23;11.30;99.90
13589;DHT22;6865;52.552;13.434;2023-04-29T03:17:49;11.30;99.90
13589;DHT22;6865;52.552;13.434;2023-04-29T03:20:16;11.30;99.90
13589;DHT22;6865;52.552;13.434;2023-04-29T03:22:43;11.30;99.90
13589;DHT22;6865;52.552;13.434;2023-04-29T03:25:09;11.20;99.90
13589;DHT22;6865;52.552;13.434;2023-04-29T03:27:36;11.20;99.90
13589;DHT22;6865;52.552;13.434;2023-04-29T03:30:03;11.30;99.90
13589;DHT22;6865;52.552;13.434;2023-04-29T03:32:30;11.30;99.90
13589;DHT22;6865;52.552;13.434;2023-04-29T03:34:56;11.30;99.90
13589;DHT22;6865;52.552;13.434;2023-04-29T03:37:23;11.30;99.90
13589;DHT22;6865;52.552;13.434;2023-04-29T03:39:49;11.20;99.90
13589;DHT22;6865;52.552;13.434;2023-04-29T03:42:16;11.20;99.90
13589;DHT22;6865;52.552;13.434;2023-04-29T03:44:43;11.20;99.90
13589;DHT22;6865;52.552;13.434;2023-04-29T03:47:09;11.20;99.90
13589;DHT22;6865;52.552;13.434;2023-04-29T03:49:36;11.20;99.90
13589;DHT22;6865;52.552;13.434;2023-04-29T03:52:03;11.20;99.90
13589;DHT22;6865;52.552;13.434;2023-04-29T03:54:30;11.40;99.90
13589;DHT22;6865;52.552;13.434;2023-04-29T03:56:57;11.30;99.90
13589;DHT22;6865;52.552;13.434;2023-04-29T03:59:23;11.40;99.90
13589;DHT22;6865;52.552;13.434;2023-04-29T04:01:50;11.40;99.90
13589;DHT22;6865;52.552;13.434;2023-04-29T04:04:19;11.40;99.90
13589;DHT22;6865;52.552;13.434;2023-04-29T04:06:47;11.40;99.90
13589;DHT22;6865;52.552;13.434;2023-04-29T04:09:17;11.50;99.90
13589;DHT22;6865;52.552;13.434;2023-04-29T04:11:44;11.50;99.90
13589;DHT22;6865;52.552;13.434;2023-04-29T04:14:11;11.60;99.90
13589;DHT22;6865;52.552;13.434;2023-04-29T04:16:37;11.60;99.90
13589;DHT22;6865;52.552;13.434;2023-04-29T04:19:04;11.60;99.90
13589;DHT22;6865;52.552;13.434;2023-04-29T04:21:31;11.50;99.90
13589;DHT22;6865;52.552;13.434;2023-04-29T04:23:57;11.50;99.90
13589;DHT22;6865;52.552;13.434;2023-04-29T04:26:24;11.50;99.90
13589;DHT22;6865;52.552;13.434;2023-04-29T04:28:50;11.50;99.90
13589;DHT22;6865;52.552;13.434;2023-04-29T04:31:17;11.40;99.90
13589;DHT22;6865;52.552;13.434;2023-04-29T04:33:44;11.60;99.90
13589;DHT22;6865;52.552;13.434;2023-04-29T04:36:12;11.60;99.90
13589;DHT22;6865;52.552;13.434;2023-04-29T04:38:38;11.70;99.90
13589;DHT22;6865;52.552;13.434;2023-04-29T04:41:05;11.70;99.90
13589;DHT22;6865;52.552;13.434;2023-04-29T04:43:33;11.70;99.90
13589;DHT22;6865;52.552;13.434;2023-04-29T04:46:00;11.80;99.90
13589;DHT22;6865;52.552;13.434;2023-04-29T04:48:34;11.90;99.90
13589;DHT22;6865;52.552;13.434;2023-04-29T04:51:12;11.80;99.90
13589;DHT22;6865;52.552;13.434;2023-04-29T04:53:39;11.80;99.90
13589;DHT22;6865;52.552;13.434;2023-04-29T04:56:06;11.90;99.90
13589;DHT22;6865;52.552;13.434;2023-04-29T04:58:33;11.90;99.90
13589;DHT22;6865;52.552;13.434;2023-04-29T05:01:00;12.00;99.90
13589;DHT22;6865;52.552;13.434;2023-04-29T05:03:27;11.90;99.90
13589;DHT22;6865;52.552;13.434;2023-04-29T05:05:55;11.80;99.90
13589;DHT22;6865;52.552;13.434;2023-04-29T05:08:22;11.80;99.90
13589;DHT22;6865;52.552;13.434;2023-04-29T05:10:48;11.70;99.90
13589;DHT22;6865;52.552;13.434;2023-04-29T05:13:15;11.70;99.90
13589;DHT22;6865;52.552;13.434;2023-04-29T05:15:42;11.70;99.90
13589;DHT22;6865;52.552;13.434;2023-04-29T05:18:09;11.60;99.90
13589;DHT22;6865;52.552;13.434;2023-04-29T05:20:36;11.90;99.90
13589;DHT22;6865;52.552;13.434;2023-04-29T05:23:03;11.80;99.90
13589;DHT22;6865;52.552;13.434;2023-04-29T05:25:30;11.80;99.90
13589;DHT22;6865;52.552;13.434;2023-04-29T05:27:57;11.80;99.90
13589;DHT22;6865;52.552;13.434;2023-04-29T05:30:23;11.90;99.90
13589;DHT22;6865;52.552;13.434;2023-04-29T05:32:50;11.90;99.90
13589;DHT22;6865;52.552;13.434;2023-04-29T05:35:17;11.80;99.90
13589;DHT22;6865;52.552;13.434;2023-04-29T05:37:43;11.80;99.90
13589;DHT22;6865;52.552;13.434;2023-04-29T05:40:10;11.80;99.90
13589;DHT22;6865;52.552;13.434;2023-04-29T05:42:37;11.90;99.90
13589;DHT22;6865;52.552;13.434;2023-04-29T05:45:04;11.90;99.90
13589;DHT22;6865;52.552;13.434;2023-04-29T05:47:30;11.90;99.90
13589;DHT22;6865;52.552;13.434;2023-04-29T05:49:57;11.90;99.90
13589;DHT22;6865;52.552;13.434;2023-04-29T05:52:24;11.90;99.90
13589;DHT22;6865;52.552;13.434;2023-04-29T05:54:50;11.90;99.90
13589;DHT22;6865;52.552;13.434;2023-04-29T05:57:17;11.80;99.90
13589;DHT22;6865;52.552;13.434;2023-04-29T05:59:44;11.80;99.90
13589;DHT22;6865;52.552;13.434;2023-04-29T06:02:10;11.80;99.90
13589;DHT22;6865;52.552;13.434;2023-04-29T06:04:37;11.80;99.90
13589;DHT22;6865;52.552;13.434;2023-04-29T06:07:07;11.80;99.90
13589;DHT22;6865;52.552;13.434;2023-04-29T06:09:35;11.50;99.90
13589;DHT22;6865;52.552;13.434;2023-04-29T06:12:02;11.90;99.90
13589;DHT22;6865;52.552;13.434;2023-04-29T06:14:29;11.90;99.90
13589;DHT22;6865;52.552;13.434;2023-04-29T06:16:55;12.00;99.90
13589;DHT22;6865;52.552;13.434;2023-04-29T06:19:22;12.00;99.90
13589;DHT22;6865;52.552;13.434;2023-04-29T06:21:50;11.90;99.90
13589;DHT22;6865;52.552;13.434;2023-04-29T06:24:17;12.00;99.90
13589;DHT22;6865;52.552;13.434;2023-04-29T06:26:44;12.00;99.90
13589;DHT22;6865;52.552;13.434;2023-04-29T06:29:11;11.90;99.90
13589;DHT22;6865;52.552;13.434;2023-04-29T06:31:37;11.90;99.90
13589;DHT22;6865;52.552;13.434;2023-04-29T06:34:04;11.90;99.90
13589;DHT22;6865;52.552;13.434;2023-04-29T06:36:31;12.10;99.90
13589;DHT22;6865;52.552;13.434;2023-04-29T06:38:58;12.10;99.90
13589;DHT22;6865;52.552;13.434;2023-04-29T06:41:25;12.10;99.90
13589;DHT22;6865;52.552;13.434;2023-04-29T06:43:52;11.90;99.90
13589;DHT22;6865;52.552;13.434;2023-04-29T06:46:18;12.00;99.90
13589;DHT22;6865;52.552;13.434;2023-04-29T06:48:45;11.90;99.90
13589;DHT22;6865;52.552;13.434;2023-04-29T06:51:12;12.10;99.90
13589;DHT22;6865;52.552;13.434;2023-04-29T06:53:38;12.10;99.90
13589;DHT22;6865;52.552;13.434;2023-04-29T06:56:05;12.10;99.90
13589;DHT22;6865;52.552;13.434;2023-04-29T06:58:33;12.10;99.90
13589;DHT22;6865;52.552;13.434;2023-04-29T07:01:05;12.20;99.90
13589;DHT22;6865;52.552;13.434;2023-04-29T07:03:33;12.10;99.90
13589;DHT22;6865;52.552;13.434;2023-04-29T07:06:00;12.10;99.90
13589;DHT22;6865;52.552;13.434;2023-04-29T07:08:27;12.10;99.90
13589;DHT22;6865;52.552;13.434;2023-04-29T07:10:57;12.20;99.90
13589;DHT22;6865;52.552;13.434;2023-04-29T07:13:24;12.20;99.90
13589;DHT22;6865;52.552;13.434;2023-04-29T07:15:51;12.20;99.90
13589;DHT22;6865;52.552;13.434;2023-04-29T07:18:18;12.30;99.90
13589;DHT22;6865;52.552;13.434;2023-04-29T07:20:45;12.20;99.90
13589;DHT22;6865;52.552;13.434;2023-04-29T07:23:13;12.30;99.90
13589;DHT22;6865;52.552;13.434;2023-04-29T07:25:40;12.40;99.90
13589;DHT22;6865;52.552;13.434;2023-04-29T07:28:07;12.40;99.90
13589;DHT22;6865;52.552;13.434;2023-04-29T07:30:34;12.40;99.90
13589;DHT22;6865;52.552;13.434;2023-04-29T07:33:01;12.30;99.90
13589;DHT22;6865;52.552;13.434;2023-04-29T07:35:29;12.30;99.90
13589;DHT22;6865;52.552;13.434;2023-04-29T07:37:57;12.30;99.90
13589;DHT22;6865;52.552;13.434;2023-04-29T07:40:23;12.30;99.90
13589;DHT22;6865;52.552;13.434;2023-04-29T07:42:50;12.30;99.90
13589;DHT22;6865;52.552;13.434;2023-04-29T07:45:17;12.40;99.90
13589;DHT22;6865;52.552;13.434;2023-04-29T07:47:43;12.30;99.90
13589;DHT22;6865;52.552;13.434;2023-04-29T07:50:11;12.30;99.90
13589;DHT22;6865;52.552;13.434;2023-04-29T07:52:38;12.20;99.90
13589;DHT22;6865;52.552;13.434;2023-04-29T07:55:04;12.20;99.90
13589;DHT22;6865;52.552;13.434;2023-04-29T07:57:31;12.30;99.90
13589;DHT22;6865;52.552;13.434;2023-04-29T07:59:58;12.30;99.90
13589;DHT22;6865;52.552;13.434;2023-04-29T08:02:25;12.20;99.90
13589;DHT22;6865;52.552;13.434;2023-04-29T08:04:51;12.30;99.90
13589;DHT22;6865;52.552;13.434;2023-04-29T08:07:20;12.30;99.90
13589;DHT22;6865;52.552;13.434;2023-04-29T08:09:47;12.20;99.90
13589;DHT22;6865;52.552;13.434;2023-04-29T08:12:13;12.20;99.90
13589;DHT22;6865;52.552;13.434;2023-04-29T08:14:40;12.20;99.90
13589;DHT22;6865;52.552;13.434;2023-04-29T08:17:07;12.30;99.90
13589;DHT22;6865;52.552;13.434;2023-04-29T08:19:34;12.20;99.90
13589;DHT22;6865;52.552;13.434;2023-04-29T08:22:02;12.20;99.90
13589;DHT22;6865;52.552;13.434;2023-04-29T08:24:29;12.10;99.90
13589;DHT22;6865;52.552;13.434;2023-04-29T08:26:56;12.10;99.90
13589;DHT22;6865;52.552;13.434;2023-04-29T08:29:24;12.10;99.90
13589;DHT22;6865;52.552;13.434;2023-04-29T08:31:51;12.00;99.90
13589;DHT22;6865;52.552;13.434;2023-04-29T08:34:18;12.00;99.90
13589;DHT22;6865;52.552;13.434;2023-04-29T08:36:45;12.00;99.90
13589;DHT22;6865;52.552;13.434;2023-04-29T08:39:11;12.00;99.90
13589;DHT22;6865;52.552;13.434;2023-04-29T08:41:38;12.00;99.90
13589;DHT22;6865;52.552;13.434;2023-04-29T08:44:05;12.10;99.90
13589;DHT22;6865;52.552;13.434;2023-04-29T08:46:32;11.80;99.90
13589;DHT22;6865;52.552;13.434;2023-04-29T08:49:02;11.90;99.90
13589;DHT22;6865;52.552;13.434;2023-04-29T08:51:29;11.90;99.90
13589;DHT22;6865;52.552;13.434;2023-04-29T08:53:58;11.90;99.90
13589;DHT22;6865;52.552;13.434;2023-04-29T08:56:26;11.90;99.90
13589;DHT22;6865;52.552;13.434;2023-04-29T08:58:56;11.90;99.90
13589;DHT22;6865;52.552;13.434;2023-04-29T09:01:27;11.90;99.90
13589;DHT22;6865;52.552;13.434;2023-04-29T09:04:26;11.90;99.90
13589;DHT22;6865;52.552;13.434;2023-04-29T09:06:57;11.80;99.90
13589;DHT22;6865;52.552;13.434;2023-04-29T09:09:25;11.80;99.90
13589;DHT22;6865;52.552;13.434;2023-04-29T09:11:52;11.60;99.90
13589;DHT22;6865;52.552;13.434;2023-04-29T09:14:19;11.70;99.90
13589;DHT22;6865;52.552;13.434;2023-04-29T09:16:46;11.60;99.90
13589;DHT22;6865;52.552;13.434;2023-04-29T09:19:34;11.50;99.90
13589;DHT22;6865;52.552;13.434;2023-04-29T09:22:04;11.50;99.90
13589;DHT22;6865;52.552;13.434;2023-04-29T09:24:33;11.50;99.90
13589;DHT22;6865;52.552;13.434;2023-04-29T09:27:00;11.40;99.90
13589;DHT22;6865;52.552;13.434;2023-04-29T09:29:30;11.30;99.90
13589;DHT22;6865;52.552;13.434;2023-04-29T09:31:58;11.30;99.90
13589;DHT22;6865;52.552;13.434;2023-04-29T09:34:35;11.30;99.90
13589;DHT22;6865;52.552;13.434;2023-04-29T09:37:25;11.20;99.90
13589;DHT22;6865;52.552;13.434;2023-04-29T09:39:53;11.20;99.90
13589;DHT22;6865;52.552;13.434;2023-04-29T09:42:20;11.10;99.90
13589;DHT22;6865;52.552;13.434;2023-04-29T09:44:47;11.10;99.90
13589;DHT22;6865;52.552;13.434;2023-04-29T09:47:14;11.10;99.90
13589;DHT22;6865;52.552;13.434;2023-04-29T09:49:42;11.20;99.90
13589;DHT22;6865;52.552;13.434;2023-04-29T09:52:12;11.20;99.90
13589;DHT22;6865;52.552;13.434;2023-04-29T09:54:41;11.20;99.90
13589;DHT22;6865;52.552;13.434;2023-04-29T09:57:09;11.10;99.90
13589;DHT22;6865;52.552;13.434;2023-04-29T09:59:38;11.20;99.90
13589;DHT22;6865;52.552;13.434;2023-04-29T10:02:16;11.10;99.90
13589;DHT22;6865;52.552;13.434;2023-04-29T10:04:53;11.10;99.90
13589;DHT22;6865;52.552;13.434;2023-04-29T10:07:24;11.10;99.90
13589;DHT22;6865;52.552;13.434;2023-04-29T10:09:53;11.10;99.90
13589;DHT22;6865;52.552;13.434;2023-04-29T10:12:21;11.10;99.90
13589;DHT22;6865;52.552;13.434;2023-04-29T10:15:06;11.10;99.90
13589;DHT22;6865;52.552;13.434;2023-04-29T10:18:11;11.20;99.90
13589;DHT22;6865;52.552;13.434;2023-04-29T10:20:45;11.20;99.90
13589;DHT22;6865;52.552;13.434;2023-04-29T10:23:13;11.30;99.90
13589;DHT22;6865;52.552;13.434;2023-04-29T10:25:44;11.30;99.90
13589;DHT22;6865;52.552;13.434;2023-04-29T10:28:13;11.40;99.90
13589;DHT22;6865;52.552;13.434;2023-04-29T10:30:44;11.40;99.90
13589;DHT22;6865;52.552;13.434;2023-04-29T10:33:11;11.50;99.90
13589;DHT22;6865;52.552;13.434;2023-04-29T10:35:43;11.60;99.90
13589;DHT22;6865;52.552;13.434;2023-04-29T10:38:16;11.60;99.90
13589;DHT22;6865;52.552;13.434;2023-04-29T10:40:46;11.70;99.90
13589;DHT22;6865;52.552;13.434;2023-04-29T10:43:14;11.80;99.90
13589;DHT22;6865;52.552;13.434;2023-04-29T10:45:41;11.90;99.90
13589;DHT22;6865;52.552;13.434;2023-04-29T10:48:10;12.00;99.90
13589;DHT22;6865;52.552;13.434;2023-04-29T10:53:17;12.10;99.90
13589;DHT22;6865;52.552;13.434;2023-04-29T10:55:53;12.10;99.90
13589;DHT22;6865;52.552;13.434;2023-04-29T10:58:45;12.10;99.90
13589;DHT22;6865;52.552;13.434;2023-04-29T11:01:13;12.20;99.90
13589;DHT22;6865;52.552;13.434;2023-04-29T11:04:04;12.20;99.90
13589;DHT22;6865;52.552;13.434;2023-04-29T11:09:09;12.30;99.90
13589;DHT22;6865;52.552;13.434;2023-04-29T11:11:44;12.40;99.90
13589;DHT22;6865;52.552;13.434;2023-04-29T11:14:12;12.50;99.90
13589;DHT22;6865;52.552;13.434;2023-04-29T11:17:08;12.60;99.90
13589;DHT22;6865;52.552;13.434;2023-04-29T11:19:35;12.70;99.90
13589;DHT22;6865;52.552;13.434;2023-04-29T11:27:23;12.90;99.90
13589;DHT22;6865;52.552;13.434;2023-04-29T11:29:55;13.00;99.90
13589;DHT22;6865;52.552;13.434;2023-04-29T11:32:27;13.00;99.90
13589;DHT22;6865;52.552;13.434;2023-04-29T11:34:54;13.20;99.90
13589;DHT22;6865;52.552;13.434;2023-04-29T11:37:24;13.60;99.90
13589;DHT22;6865;52.552;13.434;2023-04-29T11:39:58;13.70;99.90
13589;DHT22;6865;52.552;13.434;2023-04-29T11:42:26;13.90;99.90
13589;DHT22;6865;52.552;13.434;2023-04-29T11:44:54;14.10;99.90
13589;DHT22;6865;52.552;13.434;2023-04-29T11:47:30;14.10;99.90
13589;DHT22;6865;52.552;13.434;2023-04-29T11:50:07;14.10;99.90
13589;DHT22;6865;52.552;13.434;2023-04-29T11:52:38;14.10;99.90
13589;DHT22;6865;52.552;13.434;2023-04-29T11:55:09;14.10;99.90
13589;DHT22;6865;52.552;13.434;2023-04-29T11:57:37;14.10;99.90
13589;DHT22;6865;52.552;13.434;2023-04-29T12:00:11;14.20;99.90
13589;DHT22;6865;52.552;13.434;2023-04-29T12:02:43;14.10;99.90
13589;DHT22;6865;52.552;13.434;2023-04-29T12:05:11;14.00;99.90
13589;DHT22;6865;52.552;13.434;2023-04-29T12:07:42;13.90;99.90
13589;DHT22;6865;52.552;13.434;2023-04-29T12:10:10;13.90;99.90
13589;DHT22;6865;52.552;13.434;2023-04-29T12:12:38;13.90;99.90
13589;DHT22;6865;52.552;13.434;2023-04-29T12:15:08;13.70;99.90
13589;DHT22;6865;52.552;13.434;2023-04-29T12:17:39;13.70;99.90
13589;DHT22;6865;52.552;13.434;2023-04-29T12:20:07;13.60;99.90
13589;DHT22;6865;52.552;13.434;2023-04-29T12:22:38;13.60;99.90
13589;DHT22;6865;52.552;13.434;2023-04-29T12:25:05;13.60;99.90
13589;DHT22;6865;52.552;13.434;2023-04-29T12:27:38;13.70;99.90
13589;DHT22;6865;52.552;13.434;2023-04-29T12:30:06;13.90;99.90
13589;DHT22;6865;52.552;13.434;2023-04-29T12:32:35;14.00;99.90
13589;DHT22;6865;52.552;13.434;2023-04-29T12:35:02;14.10;99.90
13589;DHT22;6865;52.552;13.434;2023-04-29T12:37:29;14.10;99.90
13589;DHT22;6865;52.552;13.434;2023-04-29T12:39:56;14.20;99.90
13589;DHT22;6865;52.552;13.434;2023-04-29T12:42:23;14.10;99.90
13589;DHT22;6865;52.552;13.434;2023-04-29T12:44:49;14.10;99.90
13589;DHT22;6865;52.552;13.434;2023-04-29T12:47:16;14.00;99.90
13589;DHT22;6865;52.552;13.434;2023-04-29T12:49:46;14.00;99.90
13589;DHT22;6865;52.552;13.434;2023-04-29T12:52:14;14.00;99.90
13589;DHT22;6865;52.552;13.434;2023-04-29T12:54:41;14.10;99.90
13589;DHT22;6865;52.552;13.434;2023-04-29T12:57:10;14.20;99.90
13589;DHT22;6865;52.552;13.434;2023-04-29T12:59:37;14.30;99.90
13589;DHT22;6865;52.552;13.434;2023-04-29T13:02:05;14.40;99.90
13589;DHT22;6865;52.552;13.434;2023-04-29T13:04:31;14.60;99.90
13589;DHT22;6865;52.552;13.434;2023-04-29T13:06:58;14.60;99.90
13589;DHT22;6865;52.552;13.434;2023-04-29T13:09:26;14.80;99.90
13589;DHT22;6865;52.552;13.434;2023-04-29T13:11:52;14.90;99.90
13589;DHT22;6865;52.552;13.434;2023-04-29T13:14:20;15.10;99.90
13589;DHT22;6865;52.552;13.434;2023-04-29T13:16:46;15.00;99.90
13589;DHT22;6865;52.552;13.434;2023-04-29T13:19:13;15.00;99.90
13589;DHT22;6865;52.552;13.434;2023-04-29T13:22:00;15.00;99.90
13589;DHT22;6865;52.552;13.434;2023-04-29T13:24:27;14.90;99.90
13589;DHT22;6865;52.552;13.434;2023-04-29T13:26:53;14.90;99.90
13589;DHT22;6865;52.552;13.434;2023-04-29T13:29:20;14.80;99.90
13589;DHT22;6865;52.552;13.434;2023-04-29T13:31:47;14.80;99.90
13589;DHT22;6865;52.552;13.434;2023-04-29T13:34:13;14.70;99.90
13589;DHT22;6865;52.552;13.434;2023-04-29T13:36:40;14.70;99.90
13589;DHT22;6865;52.552;13.434;2023-04-29T13:39:07;14.70;99.90
13589;DHT22;6865;52.552;13.434;2023-04-29T13:41:34;14.80;99.90
13589;DHT22;6865;52.552;13.434;2023-04-29T13:44:01;14.80;99.90
13589;DHT22;6865;52.552;13.434;2023-04-29T13:46:29;14.90;99.90
13589;DHT22;6865;52.552;13.434;2023-04-29T13:48:57;15.00;99.90
13589;DHT22;6865;52.552;13.434;2023-04-29T13:51:27;15.00;99.90
13589;DHT22;6865;52.552;13.434;2023-04-29T13:53:57;15.00;99.90
13589;DHT22;6865;52.552;13.434;2023-04-29T13:56:43;15.00;99.90
13589;DHT22;6865;52.552;13.434;2023-04-29T13:59:13;15.00;99.90
13589;DHT22;6865;52.552;13.434;2023-04-29T14:02:00;15.00;99.90
13589;DHT22;6865;52.552;13.434;2023-04-29T14:04:30;15.10;99.90
13589;DHT22;6865;52.552;13.434;2023-04-29T14:06:57;15.20;99.90
13589;DHT22;6865;52.552;13.434;2023-04-29T14:09:23;15.20;99.90
13589;DHT22;6865;52.552;13.434;2023-04-29T14:11:50;15.20;99.90
13589;DHT22;6865;52.552;13.434;2023-04-29T14:14:17;15.10;99.90
13589;DHT22;6865;52.552;13.434;2023-04-29T14:16:43;15.10;99.90
13589;DHT22;6865;52.552;13.434;2023-04-29T14:19:10;15.10;99.90
13589;DHT22;6865;52.552;13.434;2023-04-29T14:21:37;15.00;99.90
13589;DHT22;6865;52.552;13.434;2023-04-29T14:24:04;15.00;99.90
13589;DHT22;6865;52.552;13.434;2023-04-29T14:26:31;14.90;99.90
13589;DHT22;6865;52.552;13.434;2023-04-29T14:28:58;14.80;99.90
13589;DHT22;6865;52.552;13.434;2023-04-29T14:31:27;14.90;99.90
13589;DHT22;6865;52.552;13.434;2023-04-29T14:33:55;14.90;99.90
13589;DHT22;6865;52.552;13.434;2023-04-29T14:36:22;15.10;99.90
13589;DHT22;6865;52.552;13.434;2023-04-29T14:38:48;15.20;99.90
13589;DHT22;6865;52.552;13.434;2023-04-29T14:41:15;15.40;99.90
13589;DHT22;6865;52.552;13.434;2023-04-29T14:43:42;15.50;99.90
13589;DHT22;6865;52.552;13.434;2023-04-29T14:46:09;15.50;99.90
13589;DHT22;6865;52.552;13.434;2023-04-29T14:48:36;15.60;99.90
13589;DHT22;6865;52.552;13.434;2023-04-29T14:51:03;15.60;99.90
13589;DHT22;6865;52.552;13.434;2023-04-29T14:53:29;15.70;99.90
13589;DHT22;6865;52.552;13.434;2023-04-29T14:55:56;15.70;99.90
13589;DHT22;6865;52.552;13.434;2023-04-29T14:58:23;15.80;99.90
13589;DHT22;6865;52.552;13.434;2023-04-29T15:00:50;15.80;99.90
13589;DHT22;6865;52.552;13.434;2023-04-29T15:03:17;15.80;99.90
13589;DHT22;6865;52.552;13.434;2023-04-29T15:05:49;15.80;99.90
13589;DHT22;6865;52.552;13.434;2023-04-29T15:08:17;15.80;99.90
13589;DHT22;6865;52.552;13.434;2023-04-29T15:10:44;15.60;99.90
13589;DHT22;6865;52.552;13.434;2023-04-29T15:13:12;15.60;99.90
13589;DHT22;6865;52.552;13.434;2023-04-29T15:15:39;15.70;99.90
13589;DHT22;6865;52.552;13.434;2023-04-29T15:18:06;15.70;99.90
13589;DHT22;6865;52.552;13.434;2023-04-29T15:20:35;15.90;99.90
13589;DHT22;6865;52.552;13.434;2023-04-29T15:23:02;15.60;99.90
13589;DHT22;6865;52.552;13.434;2023-04-29T15:25:30;15.60;99.90
13589;DHT22;6865;52.552;13.434;2023-04-29T15:27:58;15.50;99.90
13589;DHT22;6865;52.552;13.434;2023-04-29T15:30:25;15.40;99.90
13589;DHT22;6865;52.552;13.434;2023-04-29T15:32:53;15.40;99.90
13589;DHT22;6865;52.552;13.434;2023-04-29T15:35:21;15.30;99.90
13589;DHT22;6865;52.552;13.434;2023-04-29T15:37:47;15.20;99.90
13589;DHT22;6865;52.552;13.434;2023-04-29T15:40:14;15.10;99.90
13589;DHT22;6865;52.552;13.434;2023-04-29T15:42:42;15.00;99.90
13589;DHT22;6865;52.552;13.434;2023-04-29T15:45:09;15.00;99.90
13589;DHT22;6865;52.552;13.434;2023-04-29T15:47:36;15.00;99.90
13589;DHT22;6865;52.552;13.434;2023-04-29T15:50:03;14.90;99.90
13589;DHT22;6865;52.552;13.434;2023-04-29T15:52:29;14.90;99.90
13589;DHT22;6865;52.552;13.434;2023-04-29T15:54:56;14.80;99.90